Nearby METAR Reports

This page may be slow to load as it queries the National Weather Service for data.

KBIS - Bismarck, North Dakota, USA
Distance from station: S 10mi, 15km
Updated: Sun, 24-Sep-2017 2:05pm CDT
Overcast
Overcast
 Wind from N
Wind: N 14 mph , 22 km/h
Temperature: 52°F , 11°C
Dew Point: 48°F , 9°C
Humidity: 88%
Barometer: 30.02 inHg , 1016.6 hPa
Clouds: Overcast
Visibility: 10 miles , 16 km
Cloud details: Mostly cloudy 1400 ft
Overcast 1900 ft
2017/09/24 19:05 KBIS 241905Z 36012KT 10SM BKN014 OVC019 11/09 A3002 RMK AO2 T01060089 $
KY19 - Mandan, North Dakota, USA
Distance from station: SSW 11mi, 17km
Updated: Sun, 24-Sep-2017 9:15am CDT
NOT Current
Mist, Overcast
Mist, Overcast
 Wind from NNW
Wind: NNW 14 mph , 22 km/h, Gust: 20 mph , 31 km/h
Temperature: 46°F , 8°C
Wind Chill: 40°F , 4°C
Dew Point: 46°F , 8°C
Humidity: 100%
Barometer: 29.98 inHg , 1015.2 hPa
Summary: Mist
Clouds: Overcast
Visibility: 5 miles , 8 km
Cloud details: Overcast 500 ft
2017/09/24 14:15 KY19 241415Z AUTO 34012G17KT 5SM BR OVC005 08/08 A2998 RMK AO2
 
KDIK - Dickinson, North Dakota, USA
Distance from station: W 95mi, 154km
Updated: Sun, 24-Sep-2017 2:08pm CDT
Overcast
Overcast
 Wind from NNW
Wind: NNW 10 mph , 17 km/h
Temperature: 46°F , 8°C
Wind Chill: 41°F , 5°C
Dew Point: 43°F , 6°C
Humidity: 87%
Barometer: 30.06 inHg , 1017.9 hPa
Clouds: Overcast
Visibility: 10 miles , 16 km
Cloud details: Overcast 1000 ft
2017/09/24 19:08 KDIK 241908Z AUTO 34009KT 10SM OVC010 08/06 A3006 RMK AO2 CIG 008V013 T00780056 $
KISN - Williston, North Dakota, USA
Distance from station: NNW 2mi, 2km
Updated: Sun, 24-Sep-2017 1:52pm CDT
Overcast
Overcast
 Wind from NNW
Wind: NNW 8 mph , 13 km/h
Temperature: 48°F , 9°C
Wind Chill: 44°F , 7°C
Dew Point: 41°F , 5°C
Humidity: 76%
Barometer: 30.11 inHg , 1019.6 hPa
Clouds: Overcast
Visibility: 10 miles , 16 km
Cloud details: Mostly cloudy 2100 ft
Overcast 2600 ft
2017/09/24 18:52 KISN 241852Z AUTO 34007KT 10SM BKN021 OVC026 09/05 A3011 RMK AO2 SLP208 T00890050
 
KFAR - Fargo, North Dakota, USA
Distance from station: NNW 4mi, 7km
Updated: Sun, 24-Sep-2017 2:09pm CDT
Light rain, Mist, Overcast
Light rain, Mist, Overcast
 Wind from N
Wind: N 10 mph , 17 km/h
Temperature: 55°F , 13°C
Dew Point: 55°F , 13°C
Humidity: 100%
Barometer: 29.84 inHg , 1010.5 hPa
Summary: Light rain, Mist
Clouds: Overcast
Visibility: 6 miles , 10 km
Cloud details: Overcast 700 ft
2017/09/24 19:09 KFAR 241909Z 35009KT 6SM -RA BR OVC007 13/13 A2984 RMK AO2 P0001 T01330128
KGFK - Grand Forks, North Dakota, USA
Distance from station: NNW 76mi, 123km
Updated: Sun, 24-Sep-2017 1:53pm CDT
Light rain, Overcast
Light rain, Overcast
 Wind from NNW
Wind: NNW 16 mph , 26 km/h
Temperature: 54°F , 12°C
Dew Point: 54°F , 12°C
Humidity: 100%
Barometer: 29.87 inHg , 1011.5 hPa
Summary: Light rain
Clouds: Overcast
Visibility: 10 miles , 16 km
Cloud details: Mostly cloudy 800 ft
Mostly cloudy 1200 ft
Overcast 3000 ft
2017/09/24 18:53 KGFK 241853Z 34014KT 10SM -RA BKN008 BKN012 OVC030 12/12 A2987 RMK AO2 SLP118 P0007 T01170117
 
KMOT - Minot, North Dakota, USA
Distance from station: E 109mi, 175km
Updated: Sun, 24-Sep-2017 1:54pm CDT
Overcast
Overcast
 Wind from NNW
Wind: NNW 14 mph , 22 km/h
Temperature: 50°F , 10°C
Wind Chill: 45°F , 7°C
Dew Point: 45°F , 7°C
Humidity: 82%
Barometer: 30.04 inHg , 1017.3 hPa
Clouds: Overcast
Visibility: 10 miles , 16 km
Cloud details: Partly cloudy 1400 ft
Overcast 2200 ft
2017/09/24 18:54 KMOT 241854Z 33012KT 10SM SCT014 OVC022 10/07 A3004 RMK AO2 SLP180 T01000072
KGDV - Glendive, Montana, USA
Distance from station: W 3mi, 6km
Updated: Sun, 24-Sep-2017 1:56pm CDT
Overcast
Overcast
 Wind from NE
Wind: NE 5 mph , 7 km/h
Temperature: 46°F , 8°C
Wind Chill: 44°F , 7°C
Dew Point: 39°F , 4°C
Humidity: 76%
Barometer: 30.12 inHg , 1020 hPa
Clouds: Overcast
Visibility: 10 miles , 16 km
Cloud details: Mostly cloudy 2300 ft
Overcast 2900 ft
2017/09/24 18:56 KGDV 241856Z AUTO 04004KT 10SM BKN023 OVC029 08/04 A3012 RMK AO2 SLP213 T00780039 $